sensor_id;sensor_type;location;lat;lon;timestamp;P1;durP1;ratioP1;P2;durP2;ratioP2
38851;SDS011;24605;50.092;9.182;2023-01-10T00:01:33;3.83;;;1.23;;
38851;SDS011;24605;50.092;9.182;2023-01-10T00:04:00;3.75;;;1.10;;
38851;SDS011;24605;50.092;9.182;2023-01-10T00:06:28;5.20;;;1.90;;
38851;SDS011;24605;50.092;9.182;2023-01-10T00:08:54;4.28;;;1.60;;
38851;SDS011;24605;50.092;9.182;2023-01-10T00:11:21;4.82;;;1.67;;
38851;SDS011;24605;50.092;9.182;2023-01-10T00:14:05;4.87;;;1.53;;
38851;SDS011;24605;50.092;9.182;2023-01-10T00:16:32;4.93;;;1.88;;
38851;SDS011;24605;50.092;9.182;2023-01-10T00:18:58;3.42;;;1.70;;
38851;SDS011;24605;50.092;9.182;2023-01-10T00:21:25;6.47;;;1.80;;
38851;SDS011;24605;50.092;9.182;2023-01-10T00:23:54;6.38;;;1.70;;
38851;SDS011;24605;50.092;9.182;2023-01-10T00:26:22;4.38;;;1.80;;
38851;SDS011;24605;50.092;9.182;2023-01-10T00:28:50;4.28;;;1.73;;
38851;SDS011;24605;50.092;9.182;2023-01-10T00:31:17;4.38;;;1.67;;
38851;SDS011;24605;50.092;9.182;2023-01-10T00:33:43;4.97;;;1.65;;
38851;SDS011;24605;50.092;9.182;2023-01-10T00:36:10;4.88;;;2.17;;
38851;SDS011;24605;50.092;9.182;2023-01-10T00:38:37;5.40;;;1.88;;
38851;SDS011;24605;50.092;9.182;2023-01-10T00:41:05;4.32;;;1.60;;
38851;SDS011;24605;50.092;9.182;2023-01-10T00:43:53;4.00;;;1.70;;
38851;SDS011;24605;50.092;9.182;2023-01-10T00:46:21;7.25;;;2.17;;
38851;SDS011;24605;50.092;9.182;2023-01-10T00:48:48;5.13;;;1.85;;
38851;SDS011;24605;50.092;9.182;2023-01-10T00:51:14;5.60;;;1.90;;
38851;SDS011;24605;50.092;9.182;2023-01-10T00:53:41;3.85;;;1.80;;
38851;SDS011;24605;50.092;9.182;2023-01-10T00:56:09;5.45;;;1.90;;
38851;SDS011;24605;50.092;9.182;2023-01-10T00:58:35;4.55;;;1.92;;
38851;SDS011;24605;50.092;9.182;2023-01-10T01:01:02;4.50;;;1.77;;
38851;SDS011;24605;50.092;9.182;2023-01-10T01:03:28;4.00;;;1.73;;
38851;SDS011;24605;50.092;9.182;2023-01-10T01:05:55;4.03;;;1.67;;
38851;SDS011;24605;50.092;9.182;2023-01-10T01:08:21;4.45;;;1.92;;
38851;SDS011;24605;50.092;9.182;2023-01-10T01:10:48;7.63;;;3.33;;
38851;SDS011;24605;50.092;9.182;2023-01-10T01:13:17;5.82;;;1.98;;
38851;SDS011;24605;50.092;9.182;2023-01-10T01:15:46;5.70;;;1.60;;
38851;SDS011;24605;50.092;9.182;2023-01-10T01:18:13;7.13;;;2.15;;
38851;SDS011;24605;50.092;9.182;2023-01-10T01:20:41;4.30;;;1.50;;
38851;SDS011;24605;50.092;9.182;2023-01-10T01:23:09;3.22;;;1.40;;
38851;SDS011;24605;50.092;9.182;2023-01-10T01:25:36;4.55;;;1.88;;
38851;SDS011;24605;50.092;9.182;2023-01-10T01:28:03;4.63;;;1.80;;
38851;SDS011;24605;50.092;9.182;2023-01-10T01:30:31;6.65;;;1.95;;
38851;SDS011;24605;50.092;9.182;2023-01-10T01:32:57;7.15;;;1.98;;
38851;SDS011;24605;50.092;9.182;2023-01-10T01:35:24;3.90;;;1.60;;
38851;SDS011;24605;50.092;9.182;2023-01-10T01:37:51;5.93;;;2.10;;
38851;SDS011;24605;50.092;9.182;2023-01-10T01:40:18;3.67;;;1.50;;
38851;SDS011;24605;50.092;9.182;2023-01-10T01:42:46;5.00;;;1.92;;
38851;SDS011;24605;50.092;9.182;2023-01-10T01:45:32;5.40;;;2.20;;
38851;SDS011;24605;50.092;9.182;2023-01-10T01:48:13;8.23;;;2.30;;
38851;SDS011;24605;50.092;9.182;2023-01-10T01:50:46;4.85;;;2.28;;
38851;SDS011;24605;50.092;9.182;2023-01-10T01:53:17;4.80;;;1.88;;
38851;SDS011;24605;50.092;9.182;2023-01-10T01:55:48;3.78;;;1.58;;
38851;SDS011;24605;50.092;9.182;2023-01-10T01:58:17;6.47;;;1.55;;
38851;SDS011;24605;50.092;9.182;2023-01-10T02:00:52;5.47;;;2.00;;
38851;SDS011;24605;50.092;9.182;2023-01-10T02:03:19;4.97;;;1.85;;
38851;SDS011;24605;50.092;9.182;2023-01-10T02:05:45;8.45;;;1.92;;
38851;SDS011;24605;50.092;9.182;2023-01-10T02:08:12;5.97;;;1.98;;
38851;SDS011;24605;50.092;9.182;2023-01-10T02:10:40;7.28;;;1.83;;
38851;SDS011;24605;50.092;9.182;2023-01-10T02:13:13;6.03;;;1.70;;
38851;SDS011;24605;50.092;9.182;2023-01-10T02:15:41;5.82;;;1.75;;
38851;SDS011;24605;50.092;9.182;2023-01-10T02:18:08;8.20;;;2.00;;
38851;SDS011;24605;50.092;9.182;2023-01-10T02:20:37;4.35;;;1.80;;
38851;SDS011;24605;50.092;9.182;2023-01-10T02:23:18;7.10;;;1.95;;
38851;SDS011;24605;50.092;9.182;2023-01-10T02:26:03;5.38;;;1.98;;
38851;SDS011;24605;50.092;9.182;2023-01-10T02:28:59;7.80;;;2.55;;
38851;SDS011;24605;50.092;9.182;2023-01-10T02:31:52;5.22;;;2.10;;
38851;SDS011;24605;50.092;9.182;2023-01-10T02:34:31;6.10;;;2.47;;
38851;SDS011;24605;50.092;9.182;2023-01-10T02:37:07;8.98;;;2.85;;
38851;SDS011;24605;50.092;9.182;2023-01-10T02:39:43;6.32;;;2.30;;
38851;SDS011;24605;50.092;9.182;2023-01-10T02:42:24;5.38;;;1.90;;
38851;SDS011;24605;50.092;9.182;2023-01-10T02:44:57;6.53;;;1.70;;
38851;SDS011;24605;50.092;9.182;2023-01-10T02:47:34;3.85;;;1.88;;
38851;SDS011;24605;50.092;9.182;2023-01-10T02:50:15;6.45;;;2.13;;
38851;SDS011;24605;50.092;9.182;2023-01-10T02:52:53;6.05;;;2.10;;
38851;SDS011;24605;50.092;9.182;2023-01-10T02:55:22;4.78;;;1.70;;
38851;SDS011;24605;50.092;9.182;2023-01-10T02:57:57;5.15;;;1.90;;
38851;SDS011;24605;50.092;9.182;2023-01-10T03:00:38;4.57;;;1.80;;
38851;SDS011;24605;50.092;9.182;2023-01-10T03:03:13;4.82;;;1.92;;
38851;SDS011;24605;50.092;9.182;2023-01-10T03:05:59;6.65;;;2.17;;
38851;SDS011;24605;50.092;9.182;2023-01-10T03:08:37;3.67;;;1.48;;
38851;SDS011;24605;50.092;9.182;2023-01-10T03:11:08;8.57;;;1.80;;
38851;SDS011;24605;50.092;9.182;2023-01-10T03:13:36;5.82;;;1.55;;
38851;SDS011;24605;50.092;9.182;2023-01-10T03:16:09;4.18;;;1.80;;
38851;SDS011;24605;50.092;9.182;2023-01-10T03:18:42;4.28;;;1.60;;
38851;SDS011;24605;50.092;9.182;2023-01-10T03:21:13;4.78;;;1.70;;
38851;SDS011;24605;50.092;9.182;2023-01-10T03:23:44;4.82;;;1.70;;
38851;SDS011;24605;50.092;9.182;2023-01-10T03:26:12;5.93;;;1.45;;
38851;SDS011;24605;50.092;9.182;2023-01-10T03:28:42;5.00;;;1.98;;
38851;SDS011;24605;50.092;9.182;2023-01-10T03:31:15;4.95;;;1.67;;
38851;SDS011;24605;50.092;9.182;2023-01-10T03:33:47;9.45;;;1.95;;
38851;SDS011;24605;50.092;9.182;2023-01-10T03:36:16;6.07;;;1.80;;
38851;SDS011;24605;50.092;9.182;2023-01-10T03:38:55;4.70;;;1.80;;
38851;SDS011;24605;50.092;9.182;2023-01-10T03:41:31;5.13;;;1.70;;
38851;SDS011;24605;50.092;9.182;2023-01-10T03:44:03;6.68;;;2.10;;
38851;SDS011;24605;50.092;9.182;2023-01-10T03:46:56;5.35;;;1.60;;
38851;SDS011;24605;50.092;9.182;2023-01-10T03:49:27;6.47;;;2.08;;
38851;SDS011;24605;50.092;9.182;2023-01-10T03:51:56;4.68;;;1.75;;
38851;SDS011;24605;50.092;9.182;2023-01-10T03:54:25;4.63;;;1.60;;
38851;SDS011;24605;50.092;9.182;2023-01-10T03:56:51;3.80;;;1.75;;
38851;SDS011;24605;50.092;9.182;2023-01-10T03:59:18;5.72;;;1.50;;
38851;SDS011;24605;50.092;9.182;2023-01-10T04:01:47;6.05;;;1.73;;
38851;SDS011;24605;50.092;9.182;2023-01-10T04:04:13;5.53;;;1.77;;
38851;SDS011;24605;50.092;9.182;2023-01-10T04:06:41;3.70;;;1.70;;
38851;SDS011;24605;50.092;9.182;2023-01-10T04:09:08;6.20;;;1.65;;
38851;SDS011;24605;50.092;9.182;2023-01-10T04:11:34;7.28;;;2.40;;
38851;SDS011;24605;50.092;9.182;2023-01-10T04:14:01;5.63;;;1.70;;
38851;SDS011;24605;50.092;9.182;2023-01-10T04:16:27;7.38;;;2.00;;
38851;SDS011;24605;50.092;9.182;2023-01-10T04:18:54;4.97;;;1.70;;
38851;SDS011;24605;50.092;9.182;2023-01-10T04:21:20;3.47;;;1.50;;
38851;SDS011;24605;50.092;9.182;2023-01-10T04:23:49;4.13;;;1.73;;
38851;SDS011;24605;50.092;9.182;2023-01-10T04:26:15;5.07;;;1.63;;
38851;SDS011;24605;50.092;9.182;2023-01-10T04:28:42;5.25;;;1.85;;
38851;SDS011;24605;50.092;9.182;2023-01-10T04:31:08;4.63;;;1.70;;
38851;SDS011;24605;50.092;9.182;2023-01-10T04:33:35;7.28;;;1.95;;
38851;SDS011;24605;50.092;9.182;2023-01-10T04:36:03;5.85;;;1.63;;
38851;SDS011;24605;50.092;9.182;2023-01-10T04:38:30;3.47;;;1.73;;
38851;SDS011;24605;50.092;9.182;2023-01-10T04:40:57;6.72;;;1.77;;
38851;SDS011;24605;50.092;9.182;2023-01-10T04:43:24;4.10;;;1.40;;
38851;SDS011;24605;50.092;9.182;2023-01-10T04:45:50;7.22;;;1.67;;
38851;SDS011;24605;50.092;9.182;2023-01-10T04:48:17;4.25;;;1.65;;
38851;SDS011;24605;50.092;9.182;2023-01-10T04:50:47;4.82;;;1.83;;
38851;SDS011;24605;50.092;9.182;2023-01-10T04:53:14;9.25;;;1.80;;
38851;SDS011;24605;50.092;9.182;2023-01-10T04:55:41;7.97;;;2.13;;
38851;SDS011;24605;50.092;9.182;2023-01-10T04:58:09;4.85;;;1.70;;
38851;SDS011;24605;50.092;9.182;2023-01-10T05:00:35;9.07;;;1.80;;
38851;SDS011;24605;50.092;9.182;2023-01-10T05:03:02;5.25;;;1.88;;
38851;SDS011;24605;50.092;9.182;2023-01-10T05:05:29;7.53;;;1.60;;
38851;SDS011;24605;50.092;9.182;2023-01-10T05:07:56;8.85;;;1.83;;
38851;SDS011;24605;50.092;9.182;2023-01-10T05:10:23;7.75;;;1.60;;
38851;SDS011;24605;50.092;9.182;2023-01-10T05:12:49;6.35;;;1.67;;
38851;SDS011;24605;50.092;9.182;2023-01-10T05:15:18;7.30;;;1.75;;
38851;SDS011;24605;50.092;9.182;2023-01-10T05:17:45;5.28;;;1.63;;
38851;SDS011;24605;50.092;9.182;2023-01-10T05:20:11;6.82;;;1.40;;
38851;SDS011;24605;50.092;9.182;2023-01-10T05:22:38;6.45;;;2.05;;
38851;SDS011;24605;50.092;9.182;2023-01-10T05:25:05;9.13;;;1.67;;
38851;SDS011;24605;50.092;9.182;2023-01-10T05:27:31;6.45;;;2.10;;
38851;SDS011;24605;50.092;9.182;2023-01-10T05:29:58;9.20;;;2.13;;
38851;SDS011;24605;50.092;9.182;2023-01-10T05:32:28;9.05;;;2.22;;
38851;SDS011;24605;50.092;9.182;2023-01-10T05:34:54;7.97;;;2.97;;
38851;SDS011;24605;50.092;9.182;2023-01-10T05:37:21;10.80;;;2.30;;
38851;SDS011;24605;50.092;9.182;2023-01-10T05:39:47;9.50;;;2.30;;
38851;SDS011;24605;50.092;9.182;2023-01-10T05:42:14;8.52;;;2.05;;
38851;SDS011;24605;50.092;9.182;2023-01-10T05:44:40;9.48;;;2.33;;
38851;SDS011;24605;50.092;9.182;2023-01-10T05:47:07;8.43;;;2.70;;
38851;SDS011;24605;50.092;9.182;2023-01-10T05:49:35;11.32;;;2.60;;
38851;SDS011;24605;50.092;9.182;2023-01-10T05:52:02;10.15;;;3.10;;
38851;SDS011;24605;50.092;9.182;2023-01-10T05:54:28;9.18;;;2.88;;
38851;SDS011;24605;50.092;9.182;2023-01-10T05:56:55;8.07;;;2.90;;
38851;SDS011;24605;50.092;9.182;2023-01-10T05:59:22;9.35;;;2.88;;
38851;SDS011;24605;50.092;9.182;2023-01-10T06:01:48;9.73;;;3.15;;
38851;SDS011;24605;50.092;9.182;2023-01-10T06:04:15;8.68;;;3.50;;
38851;SDS011;24605;50.092;9.182;2023-01-10T06:06:43;14.13;;;3.13;;
38851;SDS011;24605;50.092;9.182;2023-01-10T06:09:09;7.15;;;2.85;;
38851;SDS011;24605;50.092;9.182;2023-01-10T06:11:36;7.72;;;3.05;;
38851;SDS011;24605;50.092;9.182;2023-01-10T06:14:03;9.43;;;3.33;;
38851;SDS011;24605;50.092;9.182;2023-01-10T06:16:31;7.60;;;2.95;;
38851;SDS011;24605;50.092;9.182;2023-01-10T06:18:57;11.55;;;3.25;;
38851;SDS011;24605;50.092;9.182;2023-01-10T06:21:24;10.10;;;3.55;;
38851;SDS011;24605;50.092;9.182;2023-01-10T06:23:52;14.10;;;3.35;;
38851;SDS011;24605;50.092;9.182;2023-01-10T06:26:18;10.43;;;3.40;;
38851;SDS011;24605;50.092;9.182;2023-01-10T06:28:45;14.98;;;3.13;;
38851;SDS011;24605;50.092;9.182;2023-01-10T06:31:11;13.07;;;3.03;;
38851;SDS011;24605;50.092;9.182;2023-01-10T06:33:39;13.65;;;2.83;;
38851;SDS011;24605;50.092;9.182;2023-01-10T06:36:08;19.55;;;3.15;;
38851;SDS011;24605;50.092;9.182;2023-01-10T06:38:34;11.23;;;3.20;;
38851;SDS011;24605;50.092;9.182;2023-01-10T06:41:02;10.80;;;3.17;;
38851;SDS011;24605;50.092;9.182;2023-01-10T06:43:37;8.88;;;3.15;;
38851;SDS011;24605;50.092;9.182;2023-01-10T06:46:04;11.93;;;3.10;;
38851;SDS011;24605;50.092;9.182;2023-01-10T06:48:33;11.65;;;3.45;;
38851;SDS011;24605;50.092;9.182;2023-01-10T06:51:00;11.45;;;3.42;;
38851;SDS011;24605;50.092;9.182;2023-01-10T06:53:27;11.77;;;3.20;;
38851;SDS011;24605;50.092;9.182;2023-01-10T06:55:54;9.85;;;3.40;;
38851;SDS011;24605;50.092;9.182;2023-01-10T06:58:22;10.88;;;2.85;;
38851;SDS011;24605;50.092;9.182;2023-01-10T07:00:49;10.65;;;3.13;;
38851;SDS011;24605;50.092;9.182;2023-01-10T07:03:16;11.20;;;3.42;;
38851;SDS011;24605;50.092;9.182;2023-01-10T07:05:42;9.70;;;3.00;;
38851;SDS011;24605;50.092;9.182;2023-01-10T07:08:09;13.48;;;3.63;;
38851;SDS011;24605;50.092;9.182;2023-01-10T07:10:38;8.70;;;2.88;;
38851;SDS011;24605;50.092;9.182;2023-01-10T07:13:05;11.70;;;3.05;;
38851;SDS011;24605;50.092;9.182;2023-01-10T07:15:33;9.25;;;3.05;;
38851;SDS011;24605;50.092;9.182;2023-01-10T07:17:59;11.10;;;3.72;;
38851;SDS011;24605;50.092;9.182;2023-01-10T07:20:26;8.52;;;3.17;;
38851;SDS011;24605;50.092;9.182;2023-01-10T07:22:53;13.30;;;3.28;;
38851;SDS011;24605;50.092;9.182;2023-01-10T07:25:21;7.53;;;2.67;;
38851;SDS011;24605;50.092;9.182;2023-01-10T07:27:47;14.18;;;3.83;;
38851;SDS011;24605;50.092;9.182;2023-01-10T07:30:14;13.32;;;3.85;;
38851;SDS011;24605;50.092;9.182;2023-01-10T07:32:42;13.02;;;4.20;;
38851;SDS011;24605;50.092;9.182;2023-01-10T07:35:09;13.18;;;3.95;;
38851;SDS011;24605;50.092;9.182;2023-01-10T07:37:36;11.93;;;2.95;;
38851;SDS011;24605;50.092;9.182;2023-01-10T07:40:02;11.57;;;3.08;;
38851;SDS011;24605;50.092;9.182;2023-01-10T07:42:30;13.15;;;3.22;;
38851;SDS011;24605;50.092;9.182;2023-01-10T07:44:56;14.13;;;3.60;;
38851;SDS011;24605;50.092;9.182;2023-01-10T07:47:23;11.20;;;2.90;;
38851;SDS011;24605;50.092;9.182;2023-01-10T07:49:51;11.80;;;3.47;;
38851;SDS011;24605;50.092;9.182;2023-01-10T07:52:17;10.40;;;2.80;;
38851;SDS011;24605;50.092;9.182;2023-01-10T07:54:44;11.38;;;2.70;;
38851;SDS011;24605;50.092;9.182;2023-01-10T07:57:10;12.60;;;3.45;;
38851;SDS011;24605;50.092;9.182;2023-01-10T07:59:37;12.38;;;2.60;;
38851;SDS011;24605;50.092;9.182;2023-01-10T08:02:03;13.68;;;2.50;;
38851;SDS011;24605;50.092;9.182;2023-01-10T08:04:30;15.57;;;2.88;;
38851;SDS011;24605;50.092;9.182;2023-01-10T08:06:58;13.95;;;3.28;;
38851;SDS011;24605;50.092;9.182;2023-01-10T08:09:24;12.65;;;2.67;;
38851;SDS011;24605;50.092;9.182;2023-01-10T08:11:51;14.30;;;2.78;;
38851;SDS011;24605;50.092;9.182;2023-01-10T08:14:17;14.52;;;2.90;;
38851;SDS011;24605;50.092;9.182;2023-01-10T08:16:44;12.23;;;2.78;;
38851;SDS011;24605;50.092;9.182;2023-01-10T08:19:11;9.15;;;2.35;;
38851;SDS011;24605;50.092;9.182;2023-01-10T08:21:40;12.27;;;2.88;;
38851;SDS011;24605;50.092;9.182;2023-01-10T08:24:09;15.25;;;2.50;;
38851;SDS011;24605;50.092;9.182;2023-01-10T08:26:35;12.73;;;2.92;;
38851;SDS011;24605;50.092;9.182;2023-01-10T08:29:02;10.20;;;3.38;;
38851;SDS011;24605;50.092;9.182;2023-01-10T08:31:29;13.55;;;3.33;;
38851;SDS011;24605;50.092;9.182;2023-01-10T08:33:56;12.20;;;2.90;;
38851;SDS011;24605;50.092;9.182;2023-01-10T08:36:22;12.40;;;2.72;;
38851;SDS011;24605;50.092;9.182;2023-01-10T08:38:49;10.95;;;3.20;;
38851;SDS011;24605;50.092;9.182;2023-01-10T08:41:17;14.35;;;2.83;;
38851;SDS011;24605;50.092;9.182;2023-01-10T08:43:43;12.60;;;3.05;;
38851;SDS011;24605;50.092;9.182;2023-01-10T08:46:10;12.40;;;3.10;;
38851;SDS011;24605;50.092;9.182;2023-01-10T08:48:36;12.68;;;3.03;;
38851;SDS011;24605;50.092;9.182;2023-01-10T08:51:06;18.75;;;3.55;;
38851;SDS011;24605;50.092;9.182;2023-01-10T08:53:33;13.57;;;3.15;;
38851;SDS011;24605;50.092;9.182;2023-01-10T08:56:00;14.02;;;2.83;;
38851;SDS011;24605;50.092;9.182;2023-01-10T08:58:28;18.33;;;3.25;;
38851;SDS011;24605;50.092;9.182;2023-01-10T09:00:54;11.05;;;2.75;;
38851;SDS011;24605;50.092;9.182;2023-01-10T09:03:20;15.02;;;3.38;;
38851;SDS011;24605;50.092;9.182;2023-01-10T09:05:47;12.18;;;2.83;;
38851;SDS011;24605;50.092;9.182;2023-01-10T09:08:13;14.68;;;2.67;;
38851;SDS011;24605;50.092;9.182;2023-01-10T09:10:40;11.05;;;2.83;;
38851;SDS011;24605;50.092;9.182;2023-01-10T09:13:06;16.25;;;3.25;;
38851;SDS011;24605;50.092;9.182;2023-01-10T09:15:35;17.83;;;3.25;;
38851;SDS011;24605;50.092;9.182;2023-01-10T09:18:04;16.25;;;3.75;;
38851;SDS011;24605;50.092;9.182;2023-01-10T09:20:33;11.23;;;3.38;;
38851;SDS011;24605;50.092;9.182;2023-01-10T09:23:03;14.85;;;2.95;;
38851;SDS011;24605;50.092;9.182;2023-01-10T09:25:30;10.18;;;2.50;;
38851;SDS011;24605;50.092;9.182;2023-01-10T09:27:57;14.45;;;3.38;;
38851;SDS011;24605;50.092;9.182;2023-01-10T09:30:24;17.38;;;3.45;;
38851;SDS011;24605;50.092;9.182;2023-01-10T09:32:53;14.85;;;2.97;;
38851;SDS011;24605;50.092;9.182;2023-01-10T09:35:20;18.30;;;3.85;;
38851;SDS011;24605;50.092;9.182;2023-01-10T09:37:47;16.40;;;2.67;;
38851;SDS011;24605;50.092;9.182;2023-01-10T09:40:13;15.55;;;3.10;;
38851;SDS011;24605;50.092;9.182;2023-01-10T09:42:46;15.30;;;3.22;;
38851;SDS011;24605;50.092;9.182;2023-01-10T09:45:25;15.60;;;2.83;;
38851;SDS011;24605;50.092;9.182;2023-01-10T09:48:02;12.02;;;2.85;;
38851;SDS011;24605;50.092;9.182;2023-01-10T09:50:34;18.08;;;3.67;;
38851;SDS011;24605;50.092;9.182;2023-01-10T09:53:09;18.33;;;3.17;;
38851;SDS011;24605;50.092;9.182;2023-01-10T09:55:40;16.05;;;2.80;;
38851;SDS011;24605;50.092;9.182;2023-01-10T09:58:10;20.30;;;3.22;;
38851;SDS011;24605;50.092;9.182;2023-01-10T10:00:38;13.80;;;2.97;;
38851;SDS011;24605;50.092;9.182;2023-01-10T10:03:14;14.80;;;2.92;;
38851;SDS011;24605;50.092;9.182;2023-01-10T10:05:46;17.42;;;3.42;;
38851;SDS011;24605;50.092;9.182;2023-01-10T10:08:14;15.82;;;3.13;;
38851;SDS011;24605;50.092;9.182;2023-01-10T10:10:47;13.85;;;2.97;;
38851;SDS011;24605;50.092;9.182;2023-01-10T10:13:20;13.40;;;3.03;;
38851;SDS011;24605;50.092;9.182;2023-01-10T10:16:00;16.88;;;2.75;;
38851;SDS011;24605;50.092;9.182;2023-01-10T10:18:37;15.35;;;3.08;;
38851;SDS011;24605;50.092;9.182;2023-01-10T10:21:11;20.77;;;2.67;;
38851;SDS011;24605;50.092;9.182;2023-01-10T10:23:52;13.98;;;2.92;;
38851;SDS011;24605;50.092;9.182;2023-01-10T10:26:31;13.10;;;2.28;;
38851;SDS011;24605;50.092;9.182;2023-01-10T10:32:24;18.83;;;2.80;;
38851;SDS011;24605;50.092;9.182;2023-01-10T10:35:11;13.30;;;2.25;;
38851;SDS011;24605;50.092;9.182;2023-01-10T10:37:41;14.80;;;2.72;;
38851;SDS011;24605;50.092;9.182;2023-01-10T10:40:15;16.73;;;3.17;;
38851;SDS011;24605;50.092;9.182;2023-01-10T10:42:43;11.75;;;2.50;;
38851;SDS011;24605;50.092;9.182;2023-01-10T10:45:14;15.07;;;2.70;;
38851;SDS011;24605;50.092;9.182;2023-01-10T10:47:44;14.20;;;2.53;;
38851;SDS011;24605;50.092;9.182;2023-01-10T10:50:20;13.80;;;2.17;;
38851;SDS011;24605;50.092;9.182;2023-01-10T10:52:54;8.70;;;2.13;;
38851;SDS011;24605;50.092;9.182;2023-01-10T10:55:23;16.20;;;3.20;;
38851;SDS011;24605;50.092;9.182;2023-01-10T10:57:54;11.18;;;2.28;;
38851;SDS011;24605;50.092;9.182;2023-01-10T11:00:21;16.20;;;2.67;;
38851;SDS011;24605;50.092;9.182;2023-01-10T11:02:50;15.05;;;2.25;;
38851;SDS011;24605;50.092;9.182;2023-01-10T11:05:22;13.38;;;3.35;;
38851;SDS011;24605;50.092;9.182;2023-01-10T11:07:58;10.63;;;1.90;;
38851;SDS011;24605;50.092;9.182;2023-01-10T11:10:28;14.00;;;2.03;;
38851;SDS011;24605;50.092;9.182;2023-01-10T11:13:03;17.03;;;2.53;;
38851;SDS011;24605;50.092;9.182;2023-01-10T11:15:35;12.27;;;2.15;;
38851;SDS011;24605;50.092;9.182;2023-01-10T11:18:05;15.27;;;2.88;;
38851;SDS011;24605;50.092;9.182;2023-01-10T11:20:37;12.05;;;2.47;;
38851;SDS011;24605;50.092;9.182;2023-01-10T11:23:19;12.63;;;3.00;;
38851;SDS011;24605;50.092;9.182;2023-01-10T11:25:48;9.05;;;2.08;;
38851;SDS011;24605;50.092;9.182;2023-01-10T11:28:15;14.07;;;2.35;;
38851;SDS011;24605;50.092;9.182;2023-01-10T11:30:44;10.18;;;2.03;;
38851;SDS011;24605;50.092;9.182;2023-01-10T11:33:16;11.65;;;2.33;;
38851;SDS011;24605;50.092;9.182;2023-01-10T11:35:56;17.95;;;3.55;;
38851;SDS011;24605;50.092;9.182;2023-01-10T11:38:25;10.90;;;2.15;;
38851;SDS011;24605;50.092;9.182;2023-01-10T11:40:55;12.98;;;2.30;;
38851;SDS011;24605;50.092;9.182;2023-01-10T11:43:24;17.45;;;2.80;;
38851;SDS011;24605;50.092;9.182;2023-01-10T11:45:53;17.85;;;2.85;;
38851;SDS011;24605;50.092;9.182;2023-01-10T11:48:21;8.75;;;2.22;;
38851;SDS011;24605;50.092;9.182;2023-01-10T11:50:50;16.13;;;3.03;;
38851;SDS011;24605;50.092;9.182;2023-01-10T11:53:37;10.73;;;2.13;;
38851;SDS011;24605;50.092;9.182;2023-01-10T11:56:06;12.15;;;2.20;;
38851;SDS011;24605;50.092;9.182;2023-01-10T11:58:35;14.13;;;2.45;;
38851;SDS011;24605;50.092;9.182;2023-01-10T12:01:04;18.33;;;3.00;;
38851;SDS011;24605;50.092;9.182;2023-01-10T12:03:31;16.77;;;2.45;;
38851;SDS011;24605;50.092;9.182;2023-01-10T12:06:02;13.25;;;2.42;;
38851;SDS011;24605;50.092;9.182;2023-01-10T12:08:33;19.05;;;3.03;;
38851;SDS011;24605;50.092;9.182;2023-01-10T12:11:04;14.20;;;2.63;;
38851;SDS011;24605;50.092;9.182;2023-01-10T12:13:42;8.02;;;2.47;;
38851;SDS011;24605;50.092;9.182;2023-01-10T12:16:14;11.57;;;2.58;;
38851;SDS011;24605;50.092;9.182;2023-01-10T12:18:42;13.30;;;2.65;;
38851;SDS011;24605;50.092;9.182;2023-01-10T12:21:08;13.93;;;2.88;;
38851;SDS011;24605;50.092;9.182;2023-01-10T12:23:38;19.33;;;2.85;;
38851;SDS011;24605;50.092;9.182;2023-01-10T12:26:09;14.57;;;2.83;;
38851;SDS011;24605;50.092;9.182;2023-01-10T12:28:38;16.55;;;2.63;;
38851;SDS011;24605;50.092;9.182;2023-01-10T12:31:09;11.63;;;2.72;;
38851;SDS011;24605;50.092;9.182;2023-01-10T12:33:39;18.40;;;2.60;;
38851;SDS011;24605;50.092;9.182;2023-01-10T12:36:12;16.10;;;2.95;;
38851;SDS011;24605;50.092;9.182;2023-01-10T12:38:47;8.35;;;1.95;;
38851;SDS011;24605;50.092;9.182;2023-01-10T12:41:34;15.05;;;2.80;;
38851;SDS011;24605;50.092;9.182;2023-01-10T12:44:26;9.90;;;2.58;;
38851;SDS011;24605;50.092;9.182;2023-01-10T12:46:57;12.65;;;2.70;;
38851;SDS011;24605;50.092;9.182;2023-01-10T12:49:28;16.08;;;2.28;;
38851;SDS011;24605;50.092;9.182;2023-01-10T12:51:59;13.00;;;2.67;;
38851;SDS011;24605;50.092;9.182;2023-01-10T12:54:30;15.20;;;2.97;;
38851;SDS011;24605;50.092;9.182;2023-01-10T12:56:59;15.60;;;3.03;;
38851;SDS011;24605;50.092;9.182;2023-01-10T12:59:31;11.50;;;2.42;;
38851;SDS011;24605;50.092;9.182;2023-01-10T13:02:03;14.70;;;2.70;;
38851;SDS011;24605;50.092;9.182;2023-01-10T13:04:33;12.65;;;2.65;;
38851;SDS011;24605;50.092;9.182;2023-01-10T13:07:02;10.57;;;2.67;;
38851;SDS011;24605;50.092;9.182;2023-01-10T13:09:29;10.70;;;2.75;;
38851;SDS011;24605;50.092;9.182;2023-01-10T13:11:59;11.00;;;2.15;;
38851;SDS011;24605;50.092;9.182;2023-01-10T13:14:32;12.85;;;1.80;;
38851;SDS011;24605;50.092;9.182;2023-01-10T13:17:08;12.95;;;2.40;;
38851;SDS011;24605;50.092;9.182;2023-01-10T13:19:41;16.48;;;2.45;;
38851;SDS011;24605;50.092;9.182;2023-01-10T13:22:11;16.63;;;2.83;;
38851;SDS011;24605;50.092;9.182;2023-01-10T13:24:53;15.30;;;3.33;;
38851;SDS011;24605;50.092;9.182;2023-01-10T13:27:22;19.38;;;3.03;;
38851;SDS011;24605;50.092;9.182;2023-01-10T13:29:50;11.68;;;2.88;;
38851;SDS011;24605;50.092;9.182;2023-01-10T13:32:20;16.48;;;3.28;;
38851;SDS011;24605;50.092;9.182;2023-01-10T13:34:48;13.75;;;2.97;;
38851;SDS011;24605;50.092;9.182;2023-01-10T13:37:19;27.23;;;3.67;;
38851;SDS011;24605;50.092;9.182;2023-01-10T13:39:50;18.70;;;3.03;;
38851;SDS011;24605;50.092;9.182;2023-01-10T13:42:24;18.73;;;4.15;;
38851;SDS011;24605;50.092;9.182;2023-01-10T13:47:57;15.60;;;3.17;;
38851;SDS011;24605;50.092;9.182;2023-01-10T13:53:39;16.60;;;3.35;;
38851;SDS011;24605;50.092;9.182;2023-01-10T13:58:56;18.67;;;3.47;;
38851;SDS011;24605;50.092;9.182;2023-01-10T14:01:40;11.23;;;2.40;;
38851;SDS011;24605;50.092;9.182;2023-01-10T14:04:26;19.95;;;2.97;;
38851;SDS011;24605;50.092;9.182;2023-01-10T14:06:55;20.17;;;3.45;;
38851;SDS011;24605;50.092;9.182;2023-01-10T14:09:37;14.45;;;2.70;;
38851;SDS011;24605;50.092;9.182;2023-01-10T14:12:15;16.73;;;2.75;;
38851;SDS011;24605;50.092;9.182;2023-01-10T14:15:00;12.75;;;2.70;;
38851;SDS011;24605;50.092;9.182;2023-01-10T14:17:31;15.40;;;3.45;;
38851;SDS011;24605;50.092;9.182;2023-01-10T14:20:04;12.43;;;2.65;;
38851;SDS011;24605;50.092;9.182;2023-01-10T14:22:40;14.40;;;2.97;;
38851;SDS011;24605;50.092;9.182;2023-01-10T14:25:22;15.52;;;3.40;;
38851;SDS011;24605;50.092;9.182;2023-01-10T14:27:51;17.42;;;3.83;;
38851;SDS011;24605;50.092;9.182;2023-01-10T14:30:21;17.65;;;3.35;;
38851;SDS011;24605;50.092;9.182;2023-01-10T14:32:52;23.15;;;3.00;;
38851;SDS011;24605;50.092;9.182;2023-01-10T14:35:22;14.27;;;3.75;;
38851;SDS011;24605;50.092;9.182;2023-01-10T14:37:54;14.82;;;2.80;;
38851;SDS011;24605;50.092;9.182;2023-01-10T14:40:24;13.43;;;2.55;;
38851;SDS011;24605;50.092;9.182;2023-01-10T14:42:53;19.42;;;4.05;;
38851;SDS011;24605;50.092;9.182;2023-01-10T14:45:32;10.60;;;2.35;;
38851;SDS011;24605;50.092;9.182;2023-01-10T14:48:21;13.98;;;2.75;;
38851;SDS011;24605;50.092;9.182;2023-01-10T14:51:05;18.65;;;2.72;;
38851;SDS011;24605;50.092;9.182;2023-01-10T14:53:33;20.83;;;3.22;;
38851;SDS011;24605;50.092;9.182;2023-01-10T14:55:59;16.02;;;3.03;;
38851;SDS011;24605;50.092;9.182;2023-01-10T14:58:26;19.65;;;3.92;;
38851;SDS011;24605;50.092;9.182;2023-01-10T15:00:53;16.83;;;2.78;;
38851;SDS011;24605;50.092;9.182;2023-01-10T15:03:22;21.73;;;4.32;;
38851;SDS011;24605;50.092;9.182;2023-01-10T15:05:50;12.05;;;3.25;;
38851;SDS011;24605;50.092;9.182;2023-01-10T15:08:19;15.70;;;3.30;;
38851;SDS011;24605;50.092;9.182;2023-01-10T15:10:48;13.55;;;3.40;;